sensor_id;sensor_type;location;lat;lon;timestamp;temperature;humidity
11387;DHT22;5748;53.102;8.456;2024-01-07T00:00:55;3.80;69.40
11387;DHT22;5748;53.102;8.456;2024-01-07T00:03:22;3.80;69.40
11387;DHT22;5748;53.102;8.456;2024-01-07T00:05:50;4.60;70.30
11387;DHT22;5748;53.102;8.456;2024-01-07T00:08:17;3.80;69.30
11387;DHT22;5748;53.102;8.456;2024-01-07T00:10:44;3.80;69.30
11387;DHT22;5748;53.102;8.456;2024-01-07T00:13:11;3.80;68.80
11387;DHT22;5748;53.102;8.456;2024-01-07T00:15:38;3.70;69.30
11387;DHT22;5748;53.102;8.456;2024-01-07T00:18:05;3.80;69.30
11387;DHT22;5748;53.102;8.456;2024-01-07T00:20:32;3.80;69.30
11387;DHT22;5748;53.102;8.456;2024-01-07T00:23:01;3.80;68.70
11387;DHT22;5748;53.102;8.456;2024-01-07T00:25:28;6.90;72.20
11387;DHT22;5748;53.102;8.456;2024-01-07T00:27:55;3.80;69.10
11387;DHT22;5748;53.102;8.456;2024-01-07T00:30:22;3.80;69.30
11387;DHT22;5748;53.102;8.456;2024-01-07T00:32:49;3.80;69.10
11387;DHT22;5748;53.102;8.456;2024-01-07T00:35:17;3.80;69.10
11387;DHT22;5748;53.102;8.456;2024-01-07T00:37:44;3.80;69.20
11387;DHT22;5748;53.102;8.456;2024-01-07T00:40:13;4.20;69.60
11387;DHT22;5748;53.102;8.456;2024-01-07T00:42:40;3.70;69.10
11387;DHT22;5748;53.102;8.456;2024-01-07T00:45:08;3.80;69.20
11387;DHT22;5748;53.102;8.456;2024-01-07T00:47:35;3.80;69.20
11387;DHT22;5748;53.102;8.456;2024-01-07T00:50:03;3.90;69.30
11387;DHT22;5748;53.102;8.456;2024-01-07T00:52:30;3.80;69.10
11387;DHT22;5748;53.102;8.456;2024-01-07T00:54:57;3.70;68.90
11387;DHT22;5748;53.102;8.456;2024-01-07T00:57:26;3.70;69.10
11387;DHT22;5748;53.102;8.456;2024-01-07T00:59:53;3.50;68.80
11387;DHT22;5748;53.102;8.456;2024-01-07T01:02:21;4.70;69.90
11387;DHT22;5748;53.102;8.456;2024-01-07T01:04:48;4.00;69.20
11387;DHT22;5748;53.102;8.456;2024-01-07T01:07:15;4.40;69.60
11387;DHT22;5748;53.102;8.456;2024-01-07T01:09:42;4.70;70.00
11387;DHT22;5748;53.102;8.456;2024-01-07T01:12:09;3.80;69.20
11387;DHT22;5748;53.102;8.456;2024-01-07T01:14:37;3.70;69.10
11387;DHT22;5748;53.102;8.456;2024-01-07T01:17:04;3.70;69.00
11387;DHT22;5748;53.102;8.456;2024-01-07T01:19:31;3.80;69.00
11387;DHT22;5748;53.102;8.456;2024-01-07T01:21:59;3.70;68.90
11387;DHT22;5748;53.102;8.456;2024-01-07T01:24:26;3.70;69.00
11387;DHT22;5748;53.102;8.456;2024-01-07T01:26:53;3.60;68.80
11387;DHT22;5748;53.102;8.456;2024-01-07T01:29:19;3.60;68.90
11387;DHT22;5748;53.102;8.456;2024-01-07T01:31:48;3.60;69.60
11387;DHT22;5748;53.102;8.456;2024-01-07T01:34:15;3.70;69.00
11387;DHT22;5748;53.102;8.456;2024-01-07T01:36:42;3.60;68.80
11387;DHT22;5748;53.102;8.456;2024-01-07T01:39:09;3.60;68.90
11387;DHT22;5748;53.102;8.456;2024-01-07T01:41:36;4.70;70.00
11387;DHT22;5748;53.102;8.456;2024-01-07T01:44:04;3.60;68.90
11387;DHT22;5748;53.102;8.456;2024-01-07T01:46:31;4.60;69.80
11387;DHT22;5748;53.102;8.456;2024-01-07T01:49:00;4.00;69.30
11387;DHT22;5748;53.102;8.456;2024-01-07T01:51:28;3.60;69.00
11387;DHT22;5748;53.102;8.456;2024-01-07T01:53:55;3.60;69.10
11387;DHT22;5748;53.102;8.456;2024-01-07T01:56:25;4.50;69.80
11387;DHT22;5748;53.102;8.456;2024-01-07T01:58:54;3.60;69.00
11387;DHT22;5748;53.102;8.456;2024-01-07T02:01:22;4.10;69.30
11387;DHT22;5748;53.102;8.456;2024-01-07T02:03:49;3.50;68.60
11387;DHT22;5748;53.102;8.456;2024-01-07T02:06:19;4.10;69.90
11387;DHT22;5748;53.102;8.456;2024-01-07T02:08:47;3.50;68.70
11387;DHT22;5748;53.102;8.456;2024-01-07T02:11:16;3.50;68.70
11387;DHT22;5748;53.102;8.456;2024-01-07T02:13:44;3.50;68.80
11387;DHT22;5748;53.102;8.456;2024-01-07T02:16:11;4.10;69.30
11387;DHT22;5748;53.102;8.456;2024-01-07T02:18:40;3.40;68.70
11387;DHT22;5748;53.102;8.456;2024-01-07T02:21:10;3.50;68.80
11387;DHT22;5748;53.102;8.456;2024-01-07T02:23:39;3.40;68.70
11387;DHT22;5748;53.102;8.456;2024-01-07T02:26:07;3.50;68.90
11387;DHT22;5748;53.102;8.456;2024-01-07T02:28:35;3.40;68.80
11387;DHT22;5748;53.102;8.456;2024-01-07T02:31:02;3.40;68.90
11387;DHT22;5748;53.102;8.456;2024-01-07T02:33:30;3.40;68.80
11387;DHT22;5748;53.102;8.456;2024-01-07T02:35:57;3.40;68.70
11387;DHT22;5748;53.102;8.456;2024-01-07T02:38:24;6.50;71.70
11387;DHT22;5748;53.102;8.456;2024-01-07T02:40:51;3.40;68.70
11387;DHT22;5748;53.102;8.456;2024-01-07T02:43:19;3.40;68.00
11387;DHT22;5748;53.102;8.456;2024-01-07T02:45:46;5.40;70.50
11387;DHT22;5748;53.102;8.456;2024-01-07T02:48:13;3.40;68.60
11387;DHT22;5748;53.102;8.456;2024-01-07T02:50:40;3.40;68.60
11387;DHT22;5748;53.102;8.456;2024-01-07T02:53:07;3.40;68.60
11387;DHT22;5748;53.102;8.456;2024-01-07T02:55:36;3.40;68.60
11387;DHT22;5748;53.102;8.456;2024-01-07T02:58:03;3.40;68.60
11387;DHT22;5748;53.102;8.456;2024-01-07T03:00:32;3.40;68.70
11387;DHT22;5748;53.102;8.456;2024-01-07T03:05:26;3.40;68.10
11387;DHT22;5748;53.102;8.456;2024-01-07T03:07:54;3.40;68.40
11387;DHT22;5748;53.102;8.456;2024-01-07T03:10:21;3.30;68.20
11387;DHT22;5748;53.102;8.456;2024-01-07T03:12:48;3.30;68.20
11387;DHT22;5748;53.102;8.456;2024-01-07T03:15:15;3.90;68.70
11387;DHT22;5748;53.102;8.456;2024-01-07T03:17:44;5.50;70.20
11387;DHT22;5748;53.102;8.456;2024-01-07T03:20:11;3.30;68.00
11387;DHT22;5748;53.102;8.456;2024-01-07T03:22:38;3.20;67.80
11387;DHT22;5748;53.102;8.456;2024-01-07T03:25:07;3.20;67.90
11387;DHT22;5748;53.102;8.456;2024-01-07T03:27:34;3.20;67.90
11387;DHT22;5748;53.102;8.456;2024-01-07T03:30:01;3.20;67.80
11387;DHT22;5748;53.102;8.456;2024-01-07T03:32:28;3.30;67.90
11387;DHT22;5748;53.102;8.456;2024-01-07T03:34:57;3.30;67.90
11387;DHT22;5748;53.102;8.456;2024-01-07T03:37:24;4.70;69.10
11387;DHT22;5748;53.102;8.456;2024-01-07T03:39:51;3.30;67.50
11387;DHT22;5748;53.102;8.456;2024-01-07T03:42:18;3.30;67.50
11387;DHT22;5748;53.102;8.456;2024-01-07T03:44:45;3.90;67.90
11387;DHT22;5748;53.102;8.456;2024-01-07T03:49:39;3.30;66.80
11387;DHT22;5748;53.102;8.456;2024-01-07T03:52:08;3.30;67.20
11387;DHT22;5748;53.102;8.456;2024-01-07T03:54:35;3.50;67.50
11387;DHT22;5748;53.102;8.456;2024-01-07T03:57:03;3.30;67.20
11387;DHT22;5748;53.102;8.456;2024-01-07T03:59:30;3.40;67.40
11387;DHT22;5748;53.102;8.456;2024-01-07T04:01:57;3.30;67.00
11387;DHT22;5748;53.102;8.456;2024-01-07T04:04:24;3.40;67.70
11387;DHT22;5748;53.102;8.456;2024-01-07T04:06:51;3.30;66.90
11387;DHT22;5748;53.102;8.456;2024-01-07T04:09:19;3.30;66.80
11387;DHT22;5748;53.102;8.456;2024-01-07T04:11:46;3.30;66.80
11387;DHT22;5748;53.102;8.456;2024-01-07T04:14:15;3.40;66.90
11387;DHT22;5748;53.102;8.456;2024-01-07T04:16:42;3.40;66.90
11387;DHT22;5748;53.102;8.456;2024-01-07T04:19:09;3.40;67.00
11387;DHT22;5748;53.102;8.456;2024-01-07T04:21:36;3.40;67.00
11387;DHT22;5748;53.102;8.456;2024-01-07T04:24:03;3.40;66.80
11387;DHT22;5748;53.102;8.456;2024-01-07T04:26:32;3.40;66.90
11387;DHT22;5748;53.102;8.456;2024-01-07T04:28:59;3.40;66.70
11387;DHT22;5748;53.102;8.456;2024-01-07T04:31:26;3.30;66.60
11387;DHT22;5748;53.102;8.456;2024-01-07T04:33:53;3.40;67.30
11387;DHT22;5748;53.102;8.456;2024-01-07T04:36:20;3.40;66.70
11387;DHT22;5748;53.102;8.456;2024-01-07T04:38:47;3.30;66.60
11387;DHT22;5748;53.102;8.456;2024-01-07T04:41:14;3.30;66.50
11387;DHT22;5748;53.102;8.456;2024-01-07T04:43:43;3.40;66.60
11387;DHT22;5748;53.102;8.456;2024-01-07T04:46:11;3.30;66.60
11387;DHT22;5748;53.102;8.456;2024-01-07T04:48:38;3.40;66.70
11387;DHT22;5748;53.102;8.456;2024-01-07T04:51:06;3.40;66.60
11387;DHT22;5748;53.102;8.456;2024-01-07T04:53:33;3.40;66.60
11387;DHT22;5748;53.102;8.456;2024-01-07T04:56:00;3.40;66.50
11387;DHT22;5748;53.102;8.456;2024-01-07T04:58:28;3.40;66.50
11387;DHT22;5748;53.102;8.456;2024-01-07T05:00:56;3.40;66.60
11387;DHT22;5748;53.102;8.456;2024-01-07T05:03:23;3.40;66.50
11387;DHT22;5748;53.102;8.456;2024-01-07T05:05:50;3.40;65.30
11387;DHT22;5748;53.102;8.456;2024-01-07T05:08:17;4.10;67.60
11387;DHT22;5748;53.102;8.456;2024-01-07T05:10:44;3.50;66.40
11387;DHT22;5748;53.102;8.456;2024-01-07T05:13:11;3.30;66.20
11387;DHT22;5748;53.102;8.456;2024-01-07T05:15:38;3.30;65.30
11387;DHT22;5748;53.102;8.456;2024-01-07T05:18:08;3.30;65.90
11387;DHT22;5748;53.102;8.456;2024-01-07T05:20:35;3.30;65.50
11387;DHT22;5748;53.102;8.456;2024-01-07T05:23:03;3.20;65.50
11387;DHT22;5748;53.102;8.456;2024-01-07T05:25:30;3.20;65.40
11387;DHT22;5748;53.102;8.456;2024-01-07T05:27:57;3.10;65.20
11387;DHT22;5748;53.102;8.456;2024-01-07T05:30:24;3.00;65.10
11387;DHT22;5748;53.102;8.456;2024-01-07T05:32:51;2.90;64.80
11387;DHT22;5748;53.102;8.456;2024-01-07T05:35:19;2.90;65.00
11387;DHT22;5748;53.102;8.456;2024-01-07T05:37:46;2.80;65.00
11387;DHT22;5748;53.102;8.456;2024-01-07T05:40:13;2.80;65.10
11387;DHT22;5748;53.102;8.456;2024-01-07T05:42:40;2.70;65.10
11387;DHT22;5748;53.102;8.456;2024-01-07T05:45:08;2.70;65.10
11387;DHT22;5748;53.102;8.456;2024-01-07T05:47:35;2.70;65.10
11387;DHT22;5748;53.102;8.456;2024-01-07T05:50:03;2.60;65.00
11387;DHT22;5748;53.102;8.456;2024-01-07T05:52:31;2.60;65.20
11387;DHT22;5748;53.102;8.456;2024-01-07T05:54:58;2.50;65.10
11387;DHT22;5748;53.102;8.456;2024-01-07T05:57:25;2.50;65.10
11387;DHT22;5748;53.102;8.456;2024-01-07T05:59:53;2.50;65.10
11387;DHT22;5748;53.102;8.456;2024-01-07T06:02:20;2.40;65.10
11387;DHT22;5748;53.102;8.456;2024-01-07T06:04:48;2.40;65.20
11387;DHT22;5748;53.102;8.456;2024-01-07T06:07:15;2.40;65.20
11387;DHT22;5748;53.102;8.456;2024-01-07T06:09:43;2.40;65.30
11387;DHT22;5748;53.102;8.456;2024-01-07T06:12:10;2.40;65.40
11387;DHT22;5748;53.102;8.456;2024-01-07T06:14:38;2.40;65.40
11387;DHT22;5748;53.102;8.456;2024-01-07T06:17:05;2.40;65.50
11387;DHT22;5748;53.102;8.456;2024-01-07T06:19:32;2.40;65.70
11387;DHT22;5748;53.102;8.456;2024-01-07T06:21:59;2.40;65.80
11387;DHT22;5748;53.102;8.456;2024-01-07T06:24:26;2.40;65.90
11387;DHT22;5748;53.102;8.456;2024-01-07T06:26:55;2.50;66.10
11387;DHT22;5748;53.102;8.456;2024-01-07T06:29:22;2.50;66.20
11387;DHT22;5748;53.102;8.456;2024-01-07T06:31:49;2.50;66.20
11387;DHT22;5748;53.102;8.456;2024-01-07T06:34:16;2.60;66.30
11387;DHT22;5748;53.102;8.456;2024-01-07T06:36:43;2.60;66.40
11387;DHT22;5748;53.102;8.456;2024-01-07T06:39:10;2.70;66.40
11387;DHT22;5748;53.102;8.456;2024-01-07T06:41:37;2.70;66.30
11387;DHT22;5748;53.102;8.456;2024-01-07T06:44:05;3.00;66.60
11387;DHT22;5748;53.102;8.456;2024-01-07T06:46:32;2.80;66.20
11387;DHT22;5748;53.102;8.456;2024-01-07T06:49:00;2.80;66.30
11387;DHT22;5748;53.102;8.456;2024-01-07T06:51:27;2.90;66.40
11387;DHT22;5748;53.102;8.456;2024-01-07T06:53:54;2.90;66.30
11387;DHT22;5748;53.102;8.456;2024-01-07T06:56:21;3.00;66.30
11387;DHT22;5748;53.102;8.456;2024-01-07T06:58:50;3.00;66.20
11387;DHT22;5748;53.102;8.456;2024-01-07T07:01:20;3.30;66.50
11387;DHT22;5748;53.102;8.456;2024-01-07T07:03:48;3.00;66.10
11387;DHT22;5748;53.102;8.456;2024-01-07T07:06:15;3.10;66.20
11387;DHT22;5748;53.102;8.456;2024-01-07T07:08:42;3.10;66.20
11387;DHT22;5748;53.102;8.456;2024-01-07T07:11:09;3.10;66.00
11387;DHT22;5748;53.102;8.456;2024-01-07T07:13:36;3.20;66.00
11387;DHT22;5748;53.102;8.456;2024-01-07T07:16:05;3.20;66.00
11387;DHT22;5748;53.102;8.456;2024-01-07T07:18:34;3.10;65.90
11387;DHT22;5748;53.102;8.456;2024-01-07T07:21:01;3.10;65.80
11387;DHT22;5748;53.102;8.456;2024-01-07T07:23:28;3.10;65.80
11387;DHT22;5748;53.102;8.456;2024-01-07T07:25:55;3.10;65.90
11387;DHT22;5748;53.102;8.456;2024-01-07T07:28:22;3.10;65.80
11387;DHT22;5748;53.102;8.456;2024-01-07T07:30:49;3.10;65.80
11387;DHT22;5748;53.102;8.456;2024-01-07T07:33:17;3.10;65.90
11387;DHT22;5748;53.102;8.456;2024-01-07T07:35:45;3.20;65.60
11387;DHT22;5748;53.102;8.456;2024-01-07T07:38:12;3.10;66.10
11387;DHT22;5748;53.102;8.456;2024-01-07T07:40:40;3.10;66.00
11387;DHT22;5748;53.102;8.456;2024-01-07T07:43:08;3.20;66.20
11387;DHT22;5748;53.102;8.456;2024-01-07T07:45:35;3.20;66.20
11387;DHT22;5748;53.102;8.456;2024-01-07T07:48:02;3.20;66.20
11387;DHT22;5748;53.102;8.456;2024-01-07T07:50:30;3.30;66.30
11387;DHT22;5748;53.102;8.456;2024-01-07T07:52:58;3.30;66.30
11387;DHT22;5748;53.102;8.456;2024-01-07T07:55:25;3.30;66.20
11387;DHT22;5748;53.102;8.456;2024-01-07T07:57:52;3.30;66.80
11387;DHT22;5748;53.102;8.456;2024-01-07T08:00:20;3.40;66.20
11387;DHT22;5748;53.102;8.456;2024-01-07T08:02:47;3.40;66.30
11387;DHT22;5748;53.102;8.456;2024-01-07T08:05:14;3.40;66.20
11387;DHT22;5748;53.102;8.456;2024-01-07T08:07:42;3.50;66.20
11387;DHT22;5748;53.102;8.456;2024-01-07T08:10:11;3.50;66.10
11387;DHT22;5748;53.102;8.456;2024-01-07T08:12:38;3.50;66.00
11387;DHT22;5748;53.102;8.456;2024-01-07T08:15:06;3.50;65.90
11387;DHT22;5748;53.102;8.456;2024-01-07T08:17:34;3.50;65.90
11387;DHT22;5748;53.102;8.456;2024-01-07T08:20:01;3.50;65.90
11387;DHT22;5748;53.102;8.456;2024-01-07T08:22:29;3.60;66.10
11387;DHT22;5748;53.102;8.456;2024-01-07T08:24:56;3.70;66.10
11387;DHT22;5748;53.102;8.456;2024-01-07T08:27:25;3.70;66.00
11387;DHT22;5748;53.102;8.456;2024-01-07T08:29:52;3.70;65.90
11387;DHT22;5748;53.102;8.456;2024-01-07T08:32:19;3.70;65.90
11387;DHT22;5748;53.102;8.456;2024-01-07T08:34:48;3.80;65.90
11387;DHT22;5748;53.102;8.456;2024-01-07T08:37:15;3.80;65.80
11387;DHT22;5748;53.102;8.456;2024-01-07T08:39:42;3.90;65.90
11387;DHT22;5748;53.102;8.456;2024-01-07T08:42:09;3.90;66.00
11387;DHT22;5748;53.102;8.456;2024-01-07T08:44:37;4.00;66.10
11387;DHT22;5748;53.102;8.456;2024-01-07T08:47:05;3.90;65.90
11387;DHT22;5748;53.102;8.456;2024-01-07T08:49:32;4.00;66.00
11387;DHT22;5748;53.102;8.456;2024-01-07T08:52:00;4.00;65.90
11387;DHT22;5748;53.102;8.456;2024-01-07T08:54:27;4.10;66.00
11387;DHT22;5748;53.102;8.456;2024-01-07T08:56:54;4.10;65.90
11387;DHT22;5748;53.102;8.456;2024-01-07T08:59:21;4.10;65.90
11387;DHT22;5748;53.102;8.456;2024-01-07T09:01:49;4.20;65.90
11387;DHT22;5748;53.102;8.456;2024-01-07T09:04:16;4.30;66.00
11387;DHT22;5748;53.102;8.456;2024-01-07T09:06:43;4.20;65.80
11387;DHT22;5748;53.102;8.456;2024-01-07T09:09:10;4.20;65.80
11387;DHT22;5748;53.102;8.456;2024-01-07T09:11:37;4.40;66.00
11387;DHT22;5748;53.102;8.456;2024-01-07T09:14:04;4.30;65.90
11387;DHT22;5748;53.102;8.456;2024-01-07T09:16:31;4.40;66.00
11387;DHT22;5748;53.102;8.456;2024-01-07T09:19:00;4.40;65.90
11387;DHT22;5748;53.102;8.456;2024-01-07T09:21:27;4.40;65.80
11387;DHT22;5748;53.102;8.456;2024-01-07T09:23:54;4.40;65.90
11387;DHT22;5748;53.102;8.456;2024-01-07T09:26:21;4.40;65.90
11387;DHT22;5748;53.102;8.456;2024-01-07T09:28:48;4.60;66.10
11387;DHT22;5748;53.102;8.456;2024-01-07T09:31:15;4.50;65.90
11387;DHT22;5748;53.102;8.456;2024-01-07T09:33:42;4.50;65.90
11387;DHT22;5748;53.102;8.456;2024-01-07T09:36:10;4.60;65.80
11387;DHT22;5748;53.102;8.456;2024-01-07T09:38:37;4.60;65.70
11387;DHT22;5748;53.102;8.456;2024-01-07T09:41:05;4.60;65.60
11387;DHT22;5748;53.102;8.456;2024-01-07T09:43:32;4.60;65.50
11387;DHT22;5748;53.102;8.456;2024-01-07T09:45:59;4.60;65.40
11387;DHT22;5748;53.102;8.456;2024-01-07T09:48:26;4.60;65.40
11387;DHT22;5748;53.102;8.456;2024-01-07T09:50:53;4.70;65.40
11387;DHT22;5748;53.102;8.456;2024-01-07T09:53:24;4.50;65.10
11387;DHT22;5748;53.102;8.456;2024-01-07T09:55:58;4.50;64.30
11387;DHT22;5748;53.102;8.456;2024-01-07T09:58:28;4.50;65.10
11387;DHT22;5748;53.102;8.456;2024-01-07T10:00:55;4.50;65.00
11387;DHT22;5748;53.102;8.456;2024-01-07T10:03:22;4.80;65.30
11387;DHT22;5748;53.102;8.456;2024-01-07T10:05:50;4.30;65.00
11387;DHT22;5748;53.102;8.456;2024-01-07T10:08:17;4.40;65.30
11387;DHT22;5748;53.102;8.456;2024-01-07T10:10:45;5.50;66.40
11387;DHT22;5748;53.102;8.456;2024-01-07T10:13:15;4.20;65.30
11387;DHT22;5748;53.102;8.456;2024-01-07T10:15:42;4.10;65.20
11387;DHT22;5748;53.102;8.456;2024-01-07T10:18:09;4.50;65.70
11387;DHT22;5748;53.102;8.456;2024-01-07T10:20:36;4.10;65.50
11387;DHT22;5748;53.102;8.456;2024-01-07T10:23:04;4.00;65.60
11387;DHT22;5748;53.102;8.456;2024-01-07T10:25:33;4.00;65.80
11387;DHT22;5748;53.102;8.456;2024-01-07T10:28:02;4.20;66.10
11387;DHT22;5748;53.102;8.456;2024-01-07T10:30:30;4.00;66.10
11387;DHT22;5748;53.102;8.456;2024-01-07T10:32:57;4.00;66.10
11387;DHT22;5748;53.102;8.456;2024-01-07T10:35:28;4.00;65.70
11387;DHT22;5748;53.102;8.456;2024-01-07T10:37:56;4.20;66.50
11387;DHT22;5748;53.102;8.456;2024-01-07T10:40:23;4.10;66.30
11387;DHT22;5748;53.102;8.456;2024-01-07T10:45:24;4.10;65.80
11387;DHT22;5748;53.102;8.456;2024-01-07T10:47:55;4.10;66.50
11387;DHT22;5748;53.102;8.456;2024-01-07T10:50:26;4.10;66.50
11387;DHT22;5748;53.102;8.456;2024-01-07T10:52:58;4.10;66.60
11387;DHT22;5748;53.102;8.456;2024-01-07T10:55:33;4.10;66.80
11387;DHT22;5748;53.102;8.456;2024-01-07T10:58:03;4.30;67.20
11387;DHT22;5748;53.102;8.456;2024-01-07T11:00:32;4.20;67.20
11387;DHT22;5748;53.102;8.456;2024-01-07T11:03:06;4.30;67.40
11387;DHT22;5748;53.102;8.456;2024-01-07T11:05:40;4.40;67.10
11387;DHT22;5748;53.102;8.456;2024-01-07T11:08:15;4.40;67.00
11387;DHT22;5748;53.102;8.456;2024-01-07T11:10:50;4.60;66.80
11387;DHT22;5748;53.102;8.456;2024-01-07T11:13:37;4.50;66.60
11387;DHT22;5748;53.102;8.456;2024-01-07T11:16:06;4.60;66.50
11387;DHT22;5748;53.102;8.456;2024-01-07T11:18:38;4.60;66.50
11387;DHT22;5748;53.102;8.456;2024-01-07T11:21:06;4.70;66.70
11387;DHT22;5748;53.102;8.456;2024-01-07T11:23:34;4.60;66.50
11387;DHT22;5748;53.102;8.456;2024-01-07T11:26:03;4.70;66.60
11387;DHT22;5748;53.102;8.456;2024-01-07T11:28:44;4.70;66.40
11387;DHT22;5748;53.102;8.456;2024-01-07T11:31:17;6.80;68.40
11387;DHT22;5748;53.102;8.456;2024-01-07T11:33:46;4.90;67.30
11387;DHT22;5748;53.102;8.456;2024-01-07T11:36:15;5.10;68.10
11387;DHT22;5748;53.102;8.456;2024-01-07T11:38:43;6.90;70.20
11387;DHT22;5748;53.102;8.456;2024-01-07T11:41:11;5.60;69.60
11387;DHT22;5748;53.102;8.456;2024-01-07T11:43:52;6.00;70.60
11387;DHT22;5748;53.102;8.456;2024-01-07T11:46:26;6.30;69.70
11387;DHT22;5748;53.102;8.456;2024-01-07T11:48:55;6.70;70.50
11387;DHT22;5748;53.102;8.456;2024-01-07T11:51:24;7.20;71.20
11387;DHT22;5748;53.102;8.456;2024-01-07T11:53:52;7.60;71.80
11387;DHT22;5748;53.102;8.456;2024-01-07T11:56:19;8.10;72.00
11387;DHT22;5748;53.102;8.456;2024-01-07T11:58:46;8.70;72.40
11387;DHT22;5748;53.102;8.456;2024-01-07T12:01:14;9.20;72.40
11387;DHT22;5748;53.102;8.456;2024-01-07T12:03:45;10.00;71.60
11387;DHT22;5748;53.102;8.456;2024-01-07T12:06:12;10.20;71.00
11387;DHT22;5748;53.102;8.456;2024-01-07T12:08:40;10.70;70.40
11387;DHT22;5748;53.102;8.456;2024-01-07T12:11:08;11.00;69.40
11387;DHT22;5748;53.102;8.456;2024-01-07T12:13:36;11.20;68.90
11387;DHT22;5748;53.102;8.456;2024-01-07T12:16:04;11.50;68.80
11387;DHT22;5748;53.102;8.456;2024-01-07T12:18:32;11.70;68.10
11387;DHT22;5748;53.102;8.456;2024-01-07T12:21:00;11.80;67.60
11387;DHT22;5748;53.102;8.456;2024-01-07T12:23:27;11.90;66.80
11387;DHT22;5748;53.102;8.456;2024-01-07T12:25:55;12.00;66.80
11387;DHT22;5748;53.102;8.456;2024-01-07T12:28:34;12.00;65.70
11387;DHT22;5748;53.102;8.456;2024-01-07T12:31:02;11.80;64.50
11387;DHT22;5748;53.102;8.456;2024-01-07T12:33:30;11.80;63.90
11387;DHT22;5748;53.102;8.456;2024-01-07T12:36:00;11.60;62.40
11387;DHT22;5748;53.102;8.456;2024-01-07T12:38:27;11.40;61.70
11387;DHT22;5748;53.102;8.456;2024-01-07T12:40:55;11.30;61.30
11387;DHT22;5748;53.102;8.456;2024-01-07T12:43:22;10.90;61.10
11387;DHT22;5748;53.102;8.456;2024-01-07T12:45:50;10.60;60.40
11387;DHT22;5748;53.102;8.456;2024-01-07T12:48:17;10.30;60.50
11387;DHT22;5748;53.102;8.456;2024-01-07T12:50:44;10.00;60.20
11387;DHT22;5748;53.102;8.456;2024-01-07T12:53:12;9.70;61.00
11387;DHT22;5748;53.102;8.456;2024-01-07T12:55:39;9.40;60.60
11387;DHT22;5748;53.102;8.456;2024-01-07T12:58:07;9.10;60.20
11387;DHT22;5748;53.102;8.456;2024-01-07T13:00:34;9.00;60.50
11387;DHT22;5748;53.102;8.456;2024-01-07T13:03:01;8.50;60.40
11387;DHT22;5748;53.102;8.456;2024-01-07T13:05:29;8.20;60.40
11387;DHT22;5748;53.102;8.456;2024-01-07T13:07:56;7.90;60.60
11387;DHT22;5748;53.102;8.456;2024-01-07T13:10:25;7.70;60.40
11387;DHT22;5748;53.102;8.456;2024-01-07T13:12:53;7.50;61.00
11387;DHT22;5748;53.102;8.456;2024-01-07T13:15:20;7.30;61.10
11387;DHT22;5748;53.102;8.456;2024-01-07T13:17:48;7.10;61.30
11387;DHT22;5748;53.102;8.456;2024-01-07T13:20:15;6.90;62.10
11387;DHT22;5748;53.102;8.456;2024-01-07T13:22:45;6.80;61.20
11387;DHT22;5748;53.102;8.456;2024-01-07T13:25:12;6.60;61.30
11387;DHT22;5748;53.102;8.456;2024-01-07T13:27:41;6.40;61.20
11387;DHT22;5748;53.102;8.456;2024-01-07T13:30:09;6.30;61.30
11387;DHT22;5748;53.102;8.456;2024-01-07T13:35:05;6.10;61.00
11387;DHT22;5748;53.102;8.456;2024-01-07T13:37:35;5.90;61.70
11387;DHT22;5748;53.102;8.456;2024-01-07T13:40:03;5.80;61.50
11387;DHT22;5748;53.102;8.456;2024-01-07T13:42:31;5.70;61.70
11387;DHT22;5748;53.102;8.456;2024-01-07T13:45:00;5.60;61.80
11387;DHT22;5748;53.102;8.456;2024-01-07T13:47:28;5.50;62.00
11387;DHT22;5748;53.102;8.456;2024-01-07T13:49:55;6.60;63.20
11387;DHT22;5748;53.102;8.456;2024-01-07T13:52:22;5.30;61.80
11387;DHT22;5748;53.102;8.456;2024-01-07T13:54:49;5.20;61.90
11387;DHT22;5748;53.102;8.456;2024-01-07T13:57:16;5.20;62.20
11387;DHT22;5748;53.102;8.456;2024-01-07T13:59:43;5.10;62.40
11387;DHT22;5748;53.102;8.456;2024-01-07T14:02:12;5.40;62.70
11387;DHT22;5748;53.102;8.456;2024-01-07T14:04:39;5.00;62.40
11387;DHT22;5748;53.102;8.456;2024-01-07T14:07:06;6.00;63.40
11387;DHT22;5748;53.102;8.456;2024-01-07T14:09:33;4.90;62.40
11387;DHT22;5748;53.102;8.456;2024-01-07T14:12:00;4.90;62.40
11387;DHT22;5748;53.102;8.456;2024-01-07T14:14:28;4.80;62.40
11387;DHT22;5748;53.102;8.456;2024-01-07T14:16:55;4.80;63.00
11387;DHT22;5748;53.102;8.456;2024-01-07T14:19:23;4.80;62.30
11387;DHT22;5748;53.102;8.456;2024-01-07T14:21:50;4.70;62.20
11387;DHT22;5748;53.102;8.456;2024-01-07T14:24:18;4.70;62.20
11387;DHT22;5748;53.102;8.456;2024-01-07T14:26:45;4.60;62.10
11387;DHT22;5748;53.102;8.456;2024-01-07T14:29:12;4.50;62.00
11387;DHT22;5748;53.102;8.456;2024-01-07T14:31:39;4.50;61.90
11387;DHT22;5748;53.102;8.456;2024-01-07T14:34:07;5.00;62.60
11387;DHT22;5748;53.102;8.456;2024-01-07T14:36:39;4.40;62.00
11387;DHT22;5748;53.102;8.456;2024-01-07T14:39:07;4.30;61.90
11387;DHT22;5748;53.102;8.456;2024-01-07T14:41:35;4.80;62.90
11387;DHT22;5748;53.102;8.456;2024-01-07T14:44:02;4.20;61.90
11387;DHT22;5748;53.102;8.456;2024-01-07T14:46:29;4.20;62.00
11387;DHT22;5748;53.102;8.456;2024-01-07T14:48:57;4.10;61.90
11387;DHT22;5748;53.102;8.456;2024-01-07T14:51:24;4.10;61.90
11387;DHT22;5748;53.102;8.456;2024-01-07T14:53:52;4.00;61.70
11387;DHT22;5748;53.102;8.456;2024-01-07T14:56:20;4.00;61.70
11387;DHT22;5748;53.102;8.456;2024-01-07T14:58:48;3.90;61.60
11387;DHT22;5748;53.102;8.456;2024-01-07T15:01:16;3.80;61.50
11387;DHT22;5748;53.102;8.456;2024-01-07T15:03:44;3.80;61.50
11387;DHT22;5748;53.102;8.456;2024-01-07T15:06:11;3.70;61.50
11387;DHT22;5748;53.102;8.456;2024-01-07T15:08:40;4.50;62.40
11387;DHT22;5748;53.102;8.456;2024-01-07T15:11:09;4.50;62.40
11387;DHT22;5748;53.102;8.456;2024-01-07T15:13:37;3.50;61.50
11387;DHT22;5748;53.102;8.456;2024-01-07T15:16:05;4.70;62.50
11387;DHT22;5748;53.102;8.456;2024-01-07T15:18:32;3.40;61.30
11387;DHT22;5748;53.102;8.456;2024-01-07T15:20:59;3.60;61.50
11387;DHT22;5748;53.102;8.456;2024-01-07T15:23:26;3.30;61.30
11387;DHT22;5748;53.102;8.456;2024-01-07T15:25:53;3.20;61.10
11387;DHT22;5748;53.102;8.456;2024-01-07T15:28:22;3.20;61.20
11387;DHT22;5748;53.102;8.456;2024-01-07T15:30:49;4.80;62.70
11387;DHT22;5748;53.102;8.456;2024-01-07T15:33:16;3.70;61.70
11387;DHT22;5748;53.102;8.456;2024-01-07T15:35:43;4.30;62.30
11387;DHT22;5748;53.102;8.456;2024-01-07T15:38:10;4.60;62.70
11387;DHT22;5748;53.102;8.456;2024-01-07T15:40:37;4.10;62.30
11387;DHT22;5748;53.102;8.456;2024-01-07T15:43:04;4.40;62.70
11387;DHT22;5748;53.102;8.456;2024-01-07T15:45:32;2.80;61.10
11387;DHT22;5748;53.102;8.456;2024-01-07T15:48:00;2.80;61.40
11387;DHT22;5748;53.102;8.456;2024-01-07T15:50:27;2.80;61.30
11387;DHT22;5748;53.102;8.456;2024-01-07T15:52:55;2.70;61.30
11387;DHT22;5748;53.102;8.456;2024-01-07T15:55:24;2.80;61.40
11387;DHT22;5748;53.102;8.456;2024-01-07T15:57:52;2.60;61.40
11387;DHT22;5748;53.102;8.456;2024-01-07T16:00:19;2.60;62.00
11387;DHT22;5748;53.102;8.456;2024-01-07T16:02:48;2.50;61.50
11387;DHT22;5748;53.102;8.456;2024-01-07T16:05:15;2.50;62.40
11387;DHT22;5748;53.102;8.456;2024-01-07T16:07:43;2.40;62.20
11387;DHT22;5748;53.102;8.456;2024-01-07T16:10:10;2.40;61.50
11387;DHT22;5748;53.102;8.456;2024-01-07T16:12:38;2.30;61.60